sensor_id;sensor_type;location;lat;lon;timestamp;P1;durP1;ratioP1;P2;durP2;ratioP2
42246;SDS011;27913;42.722;23.268;2022-12-05T00:00:28;8.68;;;3.95;;
42246;SDS011;27913;42.722;23.268;2022-12-05T00:02:53;9.30;;;3.75;;
42246;SDS011;27913;42.722;23.268;2022-12-05T00:05:19;9.23;;;3.70;;
42246;SDS011;27913;42.722;23.268;2022-12-05T00:07:45;7.97;;;3.65;;
42246;SDS011;27913;42.722;23.268;2022-12-05T00:10:11;7.38;;;3.15;;
42246;SDS011;27913;42.722;23.268;2022-12-05T00:12:37;10.93;;;3.95;;
42246;SDS011;27913;42.722;23.268;2022-12-05T00:15:03;7.90;;;3.42;;
42246;SDS011;27913;42.722;23.268;2022-12-05T00:17:30;9.25;;;2.88;;
42246;SDS011;27913;42.722;23.268;2022-12-05T00:19:56;10.88;;;3.42;;
42246;SDS011;27913;42.722;23.268;2022-12-05T00:22:22;10.52;;;3.40;;
42246;SDS011;27913;42.722;23.268;2022-12-05T00:24:47;10.05;;;3.90;;
42246;SDS011;27913;42.722;23.268;2022-12-05T00:27:12;7.93;;;3.42;;
42246;SDS011;27913;42.722;23.268;2022-12-05T00:29:38;8.73;;;3.17;;
42246;SDS011;27913;42.722;23.268;2022-12-05T00:32:04;8.18;;;3.33;;
42246;SDS011;27913;42.722;23.268;2022-12-05T00:34:29;7.38;;;3.30;;
42246;SDS011;27913;42.722;23.268;2022-12-05T00:36:55;10.27;;;3.65;;
42246;SDS011;27913;42.722;23.268;2022-12-05T00:39:20;9.85;;;3.92;;
42246;SDS011;27913;42.722;23.268;2022-12-05T00:41:46;8.95;;;3.33;;
42246;SDS011;27913;42.722;23.268;2022-12-05T00:44:11;8.90;;;3.60;;
42246;SDS011;27913;42.722;23.268;2022-12-05T00:46:37;8.48;;;3.47;;
42246;SDS011;27913;42.722;23.268;2022-12-05T00:49:04;10.60;;;3.42;;
42246;SDS011;27913;42.722;23.268;2022-12-05T00:51:32;11.40;;;4.10;;
42246;SDS011;27913;42.722;23.268;2022-12-05T00:54:00;8.48;;;3.30;;
42246;SDS011;27913;42.722;23.268;2022-12-05T00:56:28;8.70;;;3.40;;
42246;SDS011;27913;42.722;23.268;2022-12-05T00:58:55;9.63;;;3.63;;
42246;SDS011;27913;42.722;23.268;2022-12-05T01:03:57;9.25;;;3.90;;
42246;SDS011;27913;42.722;23.268;2022-12-05T01:06:24;8.40;;;3.35;;
42246;SDS011;27913;42.722;23.268;2022-12-05T01:08:54;8.30;;;3.55;;
42246;SDS011;27913;42.722;23.268;2022-12-05T01:11:21;8.98;;;3.53;;
42246;SDS011;27913;42.722;23.268;2022-12-05T01:13:47;12.70;;;3.92;;
42246;SDS011;27913;42.722;23.268;2022-12-05T01:16:35;9.95;;;3.72;;
42246;SDS011;27913;42.722;23.268;2022-12-05T01:19:03;10.23;;;4.88;;
42246;SDS011;27913;42.722;23.268;2022-12-05T01:21:31;10.85;;;4.35;;
42246;SDS011;27913;42.722;23.268;2022-12-05T01:23:57;10.48;;;4.00;;
42246;SDS011;27913;42.722;23.268;2022-12-05T01:26:22;11.80;;;3.60;;
42246;SDS011;27913;42.722;23.268;2022-12-05T01:28:49;11.95;;;4.90;;
42246;SDS011;27913;42.722;23.268;2022-12-05T01:31:23;10.55;;;4.68;;
42246;SDS011;27913;42.722;23.268;2022-12-05T01:33:51;11.18;;;4.60;;
42246;SDS011;27913;42.722;23.268;2022-12-05T01:36:18;14.15;;;4.47;;
42246;SDS011;27913;42.722;23.268;2022-12-05T01:38:44;11.38;;;3.75;;
42246;SDS011;27913;42.722;23.268;2022-12-05T01:41:11;14.18;;;4.70;;
42246;SDS011;27913;42.722;23.268;2022-12-05T01:46:47;11.38;;;4.30;;
42246;SDS011;27913;42.722;23.268;2022-12-05T01:51:48;14.40;;;4.13;;
42246;SDS011;27913;42.722;23.268;2022-12-05T01:54:17;10.80;;;4.13;;
42246;SDS011;27913;42.722;23.268;2022-12-05T01:56:46;10.02;;;4.00;;
42246;SDS011;27913;42.722;23.268;2022-12-05T01:59:14;13.68;;;4.90;;
42246;SDS011;27913;42.722;23.268;2022-12-05T02:01:41;13.30;;;4.40;;
42246;SDS011;27913;42.722;23.268;2022-12-05T02:04:07;13.85;;;4.47;;
42246;SDS011;27913;42.722;23.268;2022-12-05T02:06:32;11.50;;;4.40;;
42246;SDS011;27913;42.722;23.268;2022-12-05T02:08:58;11.82;;;4.30;;
42246;SDS011;27913;42.722;23.268;2022-12-05T02:11:25;12.75;;;5.28;;
42246;SDS011;27913;42.722;23.268;2022-12-05T02:16:53;8.93;;;3.45;;
42246;SDS011;27913;42.722;23.268;2022-12-05T02:31:06;10.75;;;4.30;;
42246;SDS011;27913;42.722;23.268;2022-12-05T02:33:49;8.38;;;3.65;;
42246;SDS011;27913;42.722;23.268;2022-12-05T02:36:22;10.43;;;3.60;;
42246;SDS011;27913;42.722;23.268;2022-12-05T02:41:38;10.77;;;3.67;;
42246;SDS011;27913;42.722;23.268;2022-12-05T02:44:12;8.82;;;3.33;;
42246;SDS011;27913;42.722;23.268;2022-12-05T02:46:42;11.55;;;4.00;;
42246;SDS011;27913;42.722;23.268;2022-12-05T02:49:12;8.23;;;3.35;;
42246;SDS011;27913;42.722;23.268;2022-12-05T02:51:47;10.50;;;3.80;;
42246;SDS011;27913;42.722;23.268;2022-12-05T02:54:18;11.70;;;4.22;;
42246;SDS011;27913;42.722;23.268;2022-12-05T02:56:48;9.70;;;4.00;;
42246;SDS011;27913;42.722;23.268;2022-12-05T02:59:16;13.35;;;4.95;;
42246;SDS011;27913;42.722;23.268;2022-12-05T03:01:42;13.60;;;5.78;;
42246;SDS011;27913;42.722;23.268;2022-12-05T03:04:11;9.68;;;4.15;;
42246;SDS011;27913;42.722;23.268;2022-12-05T03:09:10;8.93;;;3.88;;
42246;SDS011;27913;42.722;23.268;2022-12-05T03:11:41;11.90;;;4.28;;
42246;SDS011;27913;42.722;23.268;2022-12-05T03:14:15;10.13;;;4.30;;
42246;SDS011;27913;42.722;23.268;2022-12-05T03:16:53;8.35;;;3.08;;
42246;SDS011;27913;42.722;23.268;2022-12-05T03:20:08;11.63;;;4.10;;
42246;SDS011;27913;42.722;23.268;2022-12-05T03:22:17;9.45;;;4.10;;
42246;SDS011;27913;42.722;23.268;2022-12-05T03:24:51;8.10;;;3.80;;
42246;SDS011;27913;42.722;23.268;2022-12-05T03:27:24;13.85;;;4.80;;
42246;SDS011;27913;42.722;23.268;2022-12-05T03:34:57;10.32;;;4.50;;
42246;SDS011;27913;42.722;23.268;2022-12-05T03:38:09;11.90;;;4.40;;
42246;SDS011;27913;42.722;23.268;2022-12-05T03:40:28;10.93;;;3.88;;
42246;SDS011;27913;42.722;23.268;2022-12-05T03:43:02;9.90;;;3.90;;
42246;SDS011;27913;42.722;23.268;2022-12-05T03:45:34;12.95;;;4.57;;
42246;SDS011;27913;42.722;23.268;2022-12-05T03:50:51;9.75;;;3.90;;
42246;SDS011;27913;42.722;23.268;2022-12-05T03:53:21;9.50;;;4.30;;
42246;SDS011;27913;42.722;23.268;2022-12-05T03:55:54;16.10;;;5.30;;
42246;SDS011;27913;42.722;23.268;2022-12-05T03:58:30;12.60;;;4.70;;
42246;SDS011;27913;42.722;23.268;2022-12-05T04:01:01;12.65;;;4.30;;
42246;SDS011;27913;42.722;23.268;2022-12-05T04:06:11;9.35;;;4.25;;
42246;SDS011;27913;42.722;23.268;2022-12-05T04:08:44;10.90;;;4.07;;
42246;SDS011;27913;42.722;23.268;2022-12-05T04:11:15;9.70;;;4.28;;
42246;SDS011;27913;42.722;23.268;2022-12-05T04:13:46;10.60;;;3.92;;
42246;SDS011;27913;42.722;23.268;2022-12-05T04:16:18;11.57;;;4.68;;
42246;SDS011;27913;42.722;23.268;2022-12-05T04:19:09;8.80;;;3.58;;
42246;SDS011;27913;42.722;23.268;2022-12-05T04:21:47;14.23;;;4.95;;
42246;SDS011;27913;42.722;23.268;2022-12-05T04:24:17;12.03;;;4.30;;
42246;SDS011;27913;42.722;23.268;2022-12-05T04:29:36;10.65;;;3.80;;
42246;SDS011;27913;42.722;23.268;2022-12-05T04:32:09;11.48;;;4.38;;
42246;SDS011;27913;42.722;23.268;2022-12-05T04:34:38;10.18;;;3.90;;
42246;SDS011;27913;42.722;23.268;2022-12-05T04:37:12;11.95;;;4.38;;
42246;SDS011;27913;42.722;23.268;2022-12-05T04:39:45;11.15;;;3.78;;
42246;SDS011;27913;42.722;23.268;2022-12-05T04:42:19;11.48;;;4.93;;
42246;SDS011;27913;42.722;23.268;2022-12-05T04:44:51;12.18;;;4.82;;
42246;SDS011;27913;42.722;23.268;2022-12-05T04:47:21;9.83;;;3.17;;
42246;SDS011;27913;42.722;23.268;2022-12-05T04:49:51;14.43;;;5.03;;
42246;SDS011;27913;42.722;23.268;2022-12-05T04:52:18;11.07;;;4.45;;
42246;SDS011;27913;42.722;23.268;2022-12-05T04:54:51;11.60;;;4.55;;
42246;SDS011;27913;42.722;23.268;2022-12-05T04:57:25;12.95;;;4.35;;
42246;SDS011;27913;42.722;23.268;2022-12-05T04:59:55;10.63;;;4.60;;
42246;SDS011;27913;42.722;23.268;2022-12-05T05:02:23;18.75;;;5.05;;
42246;SDS011;27913;42.722;23.268;2022-12-05T05:04:56;13.40;;;4.47;;
42246;SDS011;27913;42.722;23.268;2022-12-05T05:07:24;10.88;;;4.22;;
42246;SDS011;27913;42.722;23.268;2022-12-05T05:09:51;14.77;;;5.72;;
42246;SDS011;27913;42.722;23.268;2022-12-05T05:12:16;11.23;;;4.57;;
42246;SDS011;27913;42.722;23.268;2022-12-05T05:14:42;12.23;;;4.25;;
42246;SDS011;27913;42.722;23.268;2022-12-05T05:17:07;12.32;;;4.68;;
42246;SDS011;27913;42.722;23.268;2022-12-05T05:19:33;12.77;;;5.00;;
42246;SDS011;27913;42.722;23.268;2022-12-05T05:21:58;10.82;;;4.22;;
42246;SDS011;27913;42.722;23.268;2022-12-05T05:24:24;15.55;;;5.53;;
42246;SDS011;27913;42.722;23.268;2022-12-05T05:26:50;12.70;;;4.60;;
42246;SDS011;27913;42.722;23.268;2022-12-05T05:29:16;13.80;;;4.90;;
42246;SDS011;27913;42.722;23.268;2022-12-05T05:31:42;12.45;;;4.80;;
42246;SDS011;27913;42.722;23.268;2022-12-05T05:34:09;15.82;;;5.68;;
42246;SDS011;27913;42.722;23.268;2022-12-05T05:36:35;15.20;;;5.82;;
42246;SDS011;27913;42.722;23.268;2022-12-05T05:39:02;12.35;;;5.65;;
42246;SDS011;27913;42.722;23.268;2022-12-05T05:41:33;14.35;;;5.53;;
42246;SDS011;27913;42.722;23.268;2022-12-05T05:43:59;14.00;;;5.63;;
42246;SDS011;27913;42.722;23.268;2022-12-05T05:46:27;18.00;;;4.63;;
42246;SDS011;27913;42.722;23.268;2022-12-05T05:48:55;13.50;;;5.03;;
42246;SDS011;27913;42.722;23.268;2022-12-05T05:51:21;11.45;;;4.63;;
42246;SDS011;27913;42.722;23.268;2022-12-05T05:53:50;12.95;;;5.45;;
42246;SDS011;27913;42.722;23.268;2022-12-05T05:56:16;13.77;;;5.03;;
42246;SDS011;27913;42.722;23.268;2022-12-05T05:58:44;11.80;;;4.90;;
42246;SDS011;27913;42.722;23.268;2022-12-05T06:01:11;15.48;;;6.53;;
42246;SDS011;27913;42.722;23.268;2022-12-05T06:03:38;12.35;;;5.65;;
42246;SDS011;27913;42.722;23.268;2022-12-05T06:06:05;13.70;;;5.20;;
42246;SDS011;27913;42.722;23.268;2022-12-05T06:08:33;13.65;;;5.38;;
42246;SDS011;27913;42.722;23.268;2022-12-05T06:11:03;16.02;;;5.57;;
42246;SDS011;27913;42.722;23.268;2022-12-05T06:13:39;15.40;;;6.60;;
42246;SDS011;27913;42.722;23.268;2022-12-05T06:16:06;15.48;;;6.03;;
42246;SDS011;27913;42.722;23.268;2022-12-05T06:18:33;13.60;;;5.15;;
42246;SDS011;27913;42.722;23.268;2022-12-05T06:20:59;22.05;;;6.60;;
42246;SDS011;27913;42.722;23.268;2022-12-05T06:23:25;17.55;;;6.15;;
42246;SDS011;27913;42.722;23.268;2022-12-05T06:25:51;16.92;;;6.28;;
42246;SDS011;27913;42.722;23.268;2022-12-05T06:28:19;18.65;;;6.47;;
42246;SDS011;27913;42.722;23.268;2022-12-05T06:30:45;12.32;;;5.05;;
42246;SDS011;27913;42.722;23.268;2022-12-05T06:33:11;14.55;;;6.20;;
42246;SDS011;27913;42.722;23.268;2022-12-05T06:35:37;15.95;;;5.93;;
42246;SDS011;27913;42.722;23.268;2022-12-05T06:38:03;14.50;;;5.47;;
42246;SDS011;27913;42.722;23.268;2022-12-05T06:40:32;15.75;;;6.75;;
42246;SDS011;27913;42.722;23.268;2022-12-05T06:42:57;14.15;;;6.32;;
42246;SDS011;27913;42.722;23.268;2022-12-05T06:45:23;12.30;;;5.25;;
42246;SDS011;27913;42.722;23.268;2022-12-05T06:47:51;14.80;;;5.35;;
42246;SDS011;27913;42.722;23.268;2022-12-05T06:50:17;12.73;;;5.65;;
42246;SDS011;27913;42.722;23.268;2022-12-05T06:52:43;13.20;;;6.22;;
42246;SDS011;27913;42.722;23.268;2022-12-05T06:55:09;18.90;;;7.75;;
42246;SDS011;27913;42.722;23.268;2022-12-05T06:57:34;17.60;;;7.43;;
42246;SDS011;27913;42.722;23.268;2022-12-05T07:00:00;17.00;;;7.80;;
42246;SDS011;27913;42.722;23.268;2022-12-05T07:02:44;15.73;;;6.78;;
42246;SDS011;27913;42.722;23.268;2022-12-05T07:05:10;18.63;;;7.25;;
42246;SDS011;27913;42.722;23.268;2022-12-05T07:07:35;15.73;;;5.93;;
42246;SDS011;27913;42.722;23.268;2022-12-05T07:10:02;16.10;;;6.50;;
42246;SDS011;27913;42.722;23.268;2022-12-05T07:12:31;14.68;;;6.45;;
42246;SDS011;27913;42.722;23.268;2022-12-05T07:14:57;17.90;;;6.53;;
42246;SDS011;27913;42.722;23.268;2022-12-05T07:17:23;18.38;;;8.07;;
42246;SDS011;27913;42.722;23.268;2022-12-05T07:19:50;18.80;;;7.47;;
42246;SDS011;27913;42.722;23.268;2022-12-05T07:22:17;14.85;;;6.43;;
42246;SDS011;27913;42.722;23.268;2022-12-05T07:24:44;13.10;;;5.72;;
42246;SDS011;27913;42.722;23.268;2022-12-05T07:27:11;14.90;;;5.90;;
42246;SDS011;27913;42.722;23.268;2022-12-05T07:29:38;13.65;;;5.68;;
42246;SDS011;27913;42.722;23.268;2022-12-05T07:32:03;13.88;;;5.32;;
42246;SDS011;27913;42.722;23.268;2022-12-05T07:34:29;11.70;;;5.07;;
42246;SDS011;27913;42.722;23.268;2022-12-05T07:36:55;13.93;;;4.97;;
42246;SDS011;27913;42.722;23.268;2022-12-05T07:39:20;16.27;;;5.43;;
42246;SDS011;27913;42.722;23.268;2022-12-05T07:41:46;18.02;;;7.63;;
42246;SDS011;27913;42.722;23.268;2022-12-05T07:44:11;12.75;;;5.20;;
42246;SDS011;27913;42.722;23.268;2022-12-05T07:46:37;10.05;;;4.72;;
42246;SDS011;27913;42.722;23.268;2022-12-05T07:49:03;14.57;;;5.70;;
42246;SDS011;27913;42.722;23.268;2022-12-05T07:51:29;13.27;;;5.28;;
42246;SDS011;27913;42.722;23.268;2022-12-05T07:53:54;15.73;;;5.85;;
42246;SDS011;27913;42.722;23.268;2022-12-05T07:56:22;18.75;;;6.45;;
42246;SDS011;27913;42.722;23.268;2022-12-05T07:58:48;12.88;;;5.53;;
42246;SDS011;27913;42.722;23.268;2022-12-05T08:01:18;21.60;;;7.45;;
42246;SDS011;27913;42.722;23.268;2022-12-05T08:03:45;18.75;;;7.18;;
42246;SDS011;27913;42.722;23.268;2022-12-05T08:06:12;19.58;;;7.38;;
42246;SDS011;27913;42.722;23.268;2022-12-05T08:08:40;35.60;;;12.07;;
42246;SDS011;27913;42.722;23.268;2022-12-05T08:11:07;22.23;;;10.07;;
42246;SDS011;27913;42.722;23.268;2022-12-05T08:13:35;19.20;;;6.55;;
42246;SDS011;27913;42.722;23.268;2022-12-05T08:16:04;12.20;;;5.40;;
42246;SDS011;27913;42.722;23.268;2022-12-05T08:18:31;22.00;;;9.43;;
42246;SDS011;27913;42.722;23.268;2022-12-05T08:21:01;27.95;;;11.27;;
42246;SDS011;27913;42.722;23.268;2022-12-05T08:23:29;22.05;;;8.15;;
42246;SDS011;27913;42.722;23.268;2022-12-05T08:25:55;38.55;;;10.55;;
42246;SDS011;27913;42.722;23.268;2022-12-05T08:28:25;13.48;;;5.15;;
42246;SDS011;27913;42.722;23.268;2022-12-05T08:30:51;12.43;;;4.80;;
42246;SDS011;27913;42.722;23.268;2022-12-05T08:33:16;10.65;;;4.35;;
42246;SDS011;27913;42.722;23.268;2022-12-05T08:35:42;11.70;;;4.95;;
42246;SDS011;27913;42.722;23.268;2022-12-05T08:38:07;17.13;;;6.82;;
42246;SDS011;27913;42.722;23.268;2022-12-05T08:40:33;19.73;;;6.95;;
42246;SDS011;27913;42.722;23.268;2022-12-05T08:42:58;15.60;;;5.32;;
42246;SDS011;27913;42.722;23.268;2022-12-05T08:45:24;16.65;;;5.95;;
42246;SDS011;27913;42.722;23.268;2022-12-05T08:47:49;13.80;;;5.38;;
42246;SDS011;27913;42.722;23.268;2022-12-05T08:50:15;19.80;;;7.95;;
42246;SDS011;27913;42.722;23.268;2022-12-05T08:52:40;14.27;;;5.75;;
42246;SDS011;27913;42.722;23.268;2022-12-05T08:55:06;16.25;;;4.80;;
42246;SDS011;27913;42.722;23.268;2022-12-05T08:57:32;13.45;;;4.65;;
42246;SDS011;27913;42.722;23.268;2022-12-05T08:59:58;11.77;;;4.72;;
42246;SDS011;27913;42.722;23.268;2022-12-05T09:02:23;9.70;;;4.10;;
42246;SDS011;27913;42.722;23.268;2022-12-05T09:04:50;11.43;;;4.20;;
42246;SDS011;27913;42.722;23.268;2022-12-05T09:07:16;8.35;;;3.70;;
42246;SDS011;27913;42.722;23.268;2022-12-05T09:09:42;9.23;;;4.10;;
42246;SDS011;27913;42.722;23.268;2022-12-05T09:12:07;14.35;;;5.68;;
42246;SDS011;27913;42.722;23.268;2022-12-05T09:14:33;9.43;;;4.05;;
42246;SDS011;27913;42.722;23.268;2022-12-05T09:16:58;8.50;;;4.00;;
42246;SDS011;27913;42.722;23.268;2022-12-05T09:19:25;7.35;;;3.63;;
42246;SDS011;27913;42.722;23.268;2022-12-05T09:21:52;10.63;;;3.63;;
42246;SDS011;27913;42.722;23.268;2022-12-05T09:24:18;8.15;;;3.38;;
42246;SDS011;27913;42.722;23.268;2022-12-05T09:26:44;7.57;;;3.25;;
42246;SDS011;27913;42.722;23.268;2022-12-05T09:29:10;7.10;;;3.03;;
42246;SDS011;27913;42.722;23.268;2022-12-05T09:31:37;10.70;;;3.20;;
42246;SDS011;27913;42.722;23.268;2022-12-05T09:34:02;13.63;;;4.78;;
42246;SDS011;27913;42.722;23.268;2022-12-05T09:36:29;9.60;;;3.67;;
42246;SDS011;27913;42.722;23.268;2022-12-05T09:39:00;13.02;;;4.20;;
42246;SDS011;27913;42.722;23.268;2022-12-05T09:52:53;11.95;;;4.75;;
42246;SDS011;27913;42.722;23.268;2022-12-05T09:55:28;8.88;;;3.55;;
42246;SDS011;27913;42.722;23.268;2022-12-05T09:58:24;13.48;;;4.55;;
42246;SDS011;27913;42.722;23.268;2022-12-05T10:00:51;8.93;;;3.70;;
42246;SDS011;27913;42.722;23.268;2022-12-05T10:03:32;10.10;;;4.20;;
42246;SDS011;27913;42.722;23.268;2022-12-05T10:11:38;8.90;;;3.20;;
42246;SDS011;27913;42.722;23.268;2022-12-05T10:14:27;7.85;;;3.10;;
42246;SDS011;27913;42.722;23.268;2022-12-05T10:17:20;9.82;;;3.75;;
42246;SDS011;27913;42.722;23.268;2022-12-05T10:19:51;11.15;;;4.63;;
42246;SDS011;27913;42.722;23.268;2022-12-05T10:22:23;17.25;;;4.93;;
42246;SDS011;27913;42.722;23.268;2022-12-05T10:24:54;9.43;;;3.58;;
42246;SDS011;27913;42.722;23.268;2022-12-05T10:27:27;11.30;;;4.38;;
42246;SDS011;27913;42.722;23.268;2022-12-05T10:30:04;8.63;;;4.25;;
42246;SDS011;27913;42.722;23.268;2022-12-05T10:32:54;11.57;;;4.65;;
42246;SDS011;27913;42.722;23.268;2022-12-05T10:37:57;15.02;;;4.65;;
42246;SDS011;27913;42.722;23.268;2022-12-05T10:40:30;11.32;;;4.18;;
42246;SDS011;27913;42.722;23.268;2022-12-05T10:42:59;10.05;;;3.72;;
42246;SDS011;27913;42.722;23.268;2022-12-05T10:45:25;11.20;;;4.85;;
42246;SDS011;27913;42.722;23.268;2022-12-05T10:47:55;17.88;;;4.97;;
42246;SDS011;27913;42.722;23.268;2022-12-05T10:50:27;9.50;;;4.18;;
42246;SDS011;27913;42.722;23.268;2022-12-05T10:52:56;7.80;;;3.20;;
42246;SDS011;27913;42.722;23.268;2022-12-05T10:55:25;10.75;;;4.30;;
42246;SDS011;27913;42.722;23.268;2022-12-05T10:58:08;9.70;;;3.85;;
42246;SDS011;27913;42.722;23.268;2022-12-05T11:00:38;11.65;;;4.13;;
42246;SDS011;27913;42.722;23.268;2022-12-05T11:03:21;12.63;;;4.78;;
42246;SDS011;27913;42.722;23.268;2022-12-05T11:05:54;13.20;;;4.15;;
42246;SDS011;27913;42.722;23.268;2022-12-05T11:08:25;9.13;;;3.72;;
42246;SDS011;27913;42.722;23.268;2022-12-05T11:11:05;10.60;;;4.10;;
42246;SDS011;27913;42.722;23.268;2022-12-05T11:13:55;11.45;;;4.47;;
42246;SDS011;27913;42.722;23.268;2022-12-05T11:22:04;9.50;;;3.75;;
42246;SDS011;27913;42.722;23.268;2022-12-05T11:26:58;14.48;;;6.70;;
42246;SDS011;27913;42.722;23.268;2022-12-05T11:29:52;9.70;;;3.83;;
42246;SDS011;27913;42.722;23.268;2022-12-05T11:32:23;9.40;;;4.03;;
42246;SDS011;27913;42.722;23.268;2022-12-05T11:35:08;12.05;;;4.60;;
42246;SDS011;27913;42.722;23.268;2022-12-05T11:40:23;9.75;;;4.20;;
42246;SDS011;27913;42.722;23.268;2022-12-05T11:51:35;14.20;;;5.25;;
42246;SDS011;27913;42.722;23.268;2022-12-05T11:59:32;18.25;;;8.30;;
42246;SDS011;27913;42.722;23.268;2022-12-05T12:03:01;11.68;;;4.47;;
42246;SDS011;27913;42.722;23.268;2022-12-05T12:08:22;9.57;;;3.22;;
42246;SDS011;27913;42.722;23.268;2022-12-05T12:11:04;10.90;;;3.88;;
42246;SDS011;27913;42.722;23.268;2022-12-05T12:13:41;13.07;;;5.30;;
42246;SDS011;27913;42.722;23.268;2022-12-05T12:27:26;12.38;;;5.60;;
42246;SDS011;27913;42.722;23.268;2022-12-05T12:30:16;9.27;;;4.15;;
42246;SDS011;27913;42.722;23.268;2022-12-05T12:32:57;16.38;;;5.88;;
42246;SDS011;27913;42.722;23.268;2022-12-05T12:35:26;18.00;;;6.03;;
42246;SDS011;27913;42.722;23.268;2022-12-05T12:40:41;13.70;;;6.22;;
42246;SDS011;27913;42.722;23.268;2022-12-05T12:48:31;15.27;;;6.30;;
42246;SDS011;27913;42.722;23.268;2022-12-05T12:51:05;14.18;;;6.10;;
42246;SDS011;27913;42.722;23.268;2022-12-05T12:53:54;12.50;;;5.45;;
42246;SDS011;27913;42.722;23.268;2022-12-05T12:56:27;13.27;;;5.13;;
42246;SDS011;27913;42.722;23.268;2022-12-05T12:59:22;11.48;;;5.38;;
42246;SDS011;27913;42.722;23.268;2022-12-05T13:02:16;13.30;;;5.32;;
42246;SDS011;27913;42.722;23.268;2022-12-05T13:07:43;15.95;;;6.43;;
42246;SDS011;27913;42.722;23.268;2022-12-05T13:10:26;16.25;;;6.93;;
42246;SDS011;27913;42.722;23.268;2022-12-05T13:12:58;13.30;;;5.70;;
42246;SDS011;27913;42.722;23.268;2022-12-05T13:18:26;15.25;;;6.32;;
42246;SDS011;27913;42.722;23.268;2022-12-05T13:20:58;18.75;;;7.68;;
42246;SDS011;27913;42.722;23.268;2022-12-05T13:23:27;30.30;;;13.23;;
42246;SDS011;27913;42.722;23.268;2022-12-05T13:25:55;30.00;;;11.65;;
42246;SDS011;27913;42.722;23.268;2022-12-05T13:28:27;18.23;;;7.55;;
42246;SDS011;27913;42.722;23.268;2022-12-05T13:30:55;22.80;;;8.20;;
42246;SDS011;27913;42.722;23.268;2022-12-05T13:33:26;22.15;;;9.00;;
42246;SDS011;27913;42.722;23.268;2022-12-05T13:35:55;15.47;;;6.60;;
42246;SDS011;27913;42.722;23.268;2022-12-05T13:38:45;16.40;;;6.78;;
42246;SDS011;27913;42.722;23.268;2022-12-05T13:44:44;15.60;;;7.00;;
42246;SDS011;27913;42.722;23.268;2022-12-05T13:50:15;21.88;;;9.30;;
42246;SDS011;27913;42.722;23.268;2022-12-05T13:52:48;14.35;;;7.25;;
42246;SDS011;27913;42.722;23.268;2022-12-05T13:57:50;17.45;;;7.18;;
42246;SDS011;27913;42.722;23.268;2022-12-05T14:02:47;15.43;;;6.25;;
42246;SDS011;27913;42.722;23.268;2022-12-05T14:07:42;22.58;;;11.50;;
42246;SDS011;27913;42.722;23.268;2022-12-05T14:10:17;19.55;;;9.35;;
42246;SDS011;27913;42.722;23.268;2022-12-05T14:12:48;20.33;;;8.38;;
42246;SDS011;27913;42.722;23.268;2022-12-05T14:29:27;19.20;;;9.38;;
42246;SDS011;27913;42.722;23.268;2022-12-05T14:32:04;21.05;;;7.97;;
42246;SDS011;27913;42.722;23.268;2022-12-05T14:37:30;25.55;;;10.77;;
42246;SDS011;27913;42.722;23.268;2022-12-05T14:39:59;21.25;;;9.23;;
42246;SDS011;27913;42.722;23.268;2022-12-05T14:42:40;26.60;;;11.68;;
42246;SDS011;27913;42.722;23.268;2022-12-05T14:55:48;27.52;;;10.73;;
42246;SDS011;27913;42.722;23.268;2022-12-05T14:58:19;23.13;;;10.93;;
42246;SDS011;27913;42.722;23.268;2022-12-05T15:00:52;28.95;;;12.10;;
42246;SDS011;27913;42.722;23.268;2022-12-05T15:03:30;38.75;;;15.27;;
42246;SDS011;27913;42.722;23.268;2022-12-05T15:06:00;30.50;;;11.85;;
42246;SDS011;27913;42.722;23.268;2022-12-05T15:08:29;28.48;;;10.75;;
42246;SDS011;27913;42.722;23.268;2022-12-05T15:11:05;59.00;;;21.70;;
42246;SDS011;27913;42.722;23.268;2022-12-05T15:13:32;73.15;;;24.63;;
42246;SDS011;27913;42.722;23.268;2022-12-05T15:16:16;46.00;;;16.08;;
42246;SDS011;27913;42.722;23.268;2022-12-05T15:18:46;24.48;;;10.25;;
42246;SDS011;27913;42.722;23.268;2022-12-05T15:21:22;20.10;;;8.17;;
42246;SDS011;27913;42.722;23.268;2022-12-05T15:23:57;23.55;;;10.85;;
42246;SDS011;27913;42.722;23.268;2022-12-05T15:31:51;33.95;;;14.57;;
42246;SDS011;27913;42.722;23.268;2022-12-05T15:42:31;22.70;;;9.95;;
42246;SDS011;27913;42.722;23.268;2022-12-05T15:47:41;21.35;;;8.95;;
42246;SDS011;27913;42.722;23.268;2022-12-05T15:52:55;17.90;;;7.35;;
42246;SDS011;27913;42.722;23.268;2022-12-05T15:55:26;18.95;;;8.32;;
42246;SDS011;27913;42.722;23.268;2022-12-05T15:57:55;18.23;;;8.15;;
42246;SDS011;27913;42.722;23.268;2022-12-05T16:00:28;19.63;;;7.72;;
42246;SDS011;27913;42.722;23.268;2022-12-05T16:06:16;21.98;;;9.43;;
42246;SDS011;27913;42.722;23.268;2022-12-05T16:08:50;19.70;;;8.98;;
42246;SDS011;27913;42.722;23.268;2022-12-05T16:11:18;30.25;;;13.13;;
42246;SDS011;27913;42.722;23.268;2022-12-05T16:13:48;46.90;;;20.73;;
42246;SDS011;27913;42.722;23.268;2022-12-05T16:16:20;39.15;;;17.48;;
42246;SDS011;27913;42.722;23.268;2022-12-05T16:18:57;116.07;;;45.05;;
42246;SDS011;27913;42.722;23.268;2022-12-05T16:24:02;78.80;;;29.02;;
42246;SDS011;27913;42.722;23.268;2022-12-05T16:26:55;44.55;;;19.08;;
42246;SDS011;27913;42.722;23.268;2022-12-05T16:29:27;33.38;;;15.10;;
42246;SDS011;27913;42.722;23.268;2022-12-05T16:31:54;31.50;;;13.55;;
42246;SDS011;27913;42.722;23.268;2022-12-05T16:34:22;27.25;;;12.38;;
42246;SDS011;27913;42.722;23.268;2022-12-05T16:36:49;29.92;;;12.18;;
42246;SDS011;27913;42.722;23.268;2022-12-05T16:39:16;24.13;;;10.13;;
42246;SDS011;27913;42.722;23.268;2022-12-05T16:41:41;25.70;;;10.10;;
42246;SDS011;27913;42.722;23.268;2022-12-05T16:46:52;29.95;;;14.25;;
42246;SDS011;27913;42.722;23.268;2022-12-05T16:52:01;19.90;;;8.98;;
42246;SDS011;27913;42.722;23.268;2022-12-05T16:54:36;24.05;;;10.52;;
42246;SDS011;27913;42.722;23.268;2022-12-05T16:57:02;20.42;;;7.75;;
42246;SDS011;27913;42.722;23.268;2022-12-05T16:59:35;15.68;;;7.07;;
42246;SDS011;27913;42.722;23.268;2022-12-05T17:02:21;14.27;;;6.05;;
42246;SDS011;27913;42.722;23.268;2022-12-05T17:04:46;14.40;;;7.13;;
42246;SDS011;27913;42.722;23.268;2022-12-05T17:07:12;17.20;;;6.35;;
42246;SDS011;27913;42.722;23.268;2022-12-05T17:09:37;15.32;;;7.10;;
42246;SDS011;27913;42.722;23.268;2022-12-05T17:12:04;18.45;;;7.40;;
42246;SDS011;27913;42.722;23.268;2022-12-05T17:14:45;18.63;;;8.65;;
42246;SDS011;27913;42.722;23.268;2022-12-05T17:17:12;18.70;;;8.52;;
42246;SDS011;27913;42.722;23.268;2022-12-05T17:19:39;18.85;;;8.80;;
42246;SDS011;27913;42.722;23.268;2022-12-05T17:22:06;23.52;;;10.57;;
42246;SDS011;27913;42.722;23.268;2022-12-05T17:24:31;21.95;;;10.18;;
42246;SDS011;27913;42.722;23.268;2022-12-05T17:26:57;19.17;;;8.75;;
42246;SDS011;27913;42.722;23.268;2022-12-05T17:29:22;17.02;;;8.07;;
42246;SDS011;27913;42.722;23.268;2022-12-05T17:31:48;21.00;;;8.90;;
42246;SDS011;27913;42.722;23.268;2022-12-05T17:34:14;17.27;;;7.70;;
42246;SDS011;27913;42.722;23.268;2022-12-05T17:36:44;16.45;;;8.50;;
42246;SDS011;27913;42.722;23.268;2022-12-05T17:39:10;20.75;;;8.95;;
42246;SDS011;27913;42.722;23.268;2022-12-05T17:41:36;25.48;;;11.00;;
42246;SDS011;27913;42.722;23.268;2022-12-05T17:44:03;25.02;;;11.68;;
42246;SDS011;27913;42.722;23.268;2022-12-05T17:46:28;22.55;;;9.73;;